Time;durP1;ratioP1;P1;durP2;ratioP2;P2;SDS_P1;SDS_P2;PMS_P1;PMS_P2;Temp;Humidity;BMP_temperature;BMP_pressure;BME280_temperature;BME280_humidity;BME280_pressure;Samples;Min_cycle;Max_cycle;Signal;HPM_P1;HPM_P2
2021/11/06 00:00:17;;;;;;;109.07;53.05;;;;;;;9.37;100.00;100815.90;1827610;78;21316;-75
2021/11/06 00:03:22;;;;;;;93.47;47.98;;;;;;;9.38;100.00;100810.78;1827827;78;21299;-75
2021/11/06 00:06:28;;;;;;;94.58;51.13;;;;;;;9.41;100.00;100806.86;1827471;78;21292;-75
2021/11/06 00:09:34;;;;;;;90.42;49.38;;;;;;;9.42;100.00;100809.97;1826004;78;21248;-75
2021/11/06 00:12:39;;;;;;;83.17;45.25;;;;;;;9.41;100.00;100804.13;1826480;78;21323;-75
2021/11/06 00:15:45;;;;;;;79.50;45.38;;;;;;;9.40;100.00;100796.45;1824973;78;21339;-75
2021/11/06 00:18:51;;;;;;;89.87;46.30;;;;;;;9.40;100.00;100796.97;1826255;78;21355;-75
2021/11/06 00:21:57;;;;;;;92.90;49.33;;;;;;;9.41;100.00;100794.10;1827475;78;21823;-75
2021/11/06 00:25:03;;;;;;;96.85;50.67;;;;;;;9.45;100.00;100806.91;1827010;78;21791;-75
2021/11/06 00:28:10;;;;;;;86.00;45.90;;;;;;;9.50;100.00;100811.89;1826300;78;21317;-75
2021/11/06 00:31:15;;;;;;;94.47;51.53;;;;;;;9.54;100.00;100811.94;1826363;78;21841;-75
2021/11/06 00:34:21;;;;;;;94.00;50.17;;;;;;;9.56;100.00;100803.95;1824363;78;21801;-75
2021/11/06 00:37:27;;;;;;;109.90;53.50;;;;;;;9.60;100.00;100802.63;1825579;78;21336;-75
2021/11/06 00:40:34;;;;;;;93.78;51.60;;;;;;;9.64;100.00;100803.14;1826071;78;21889;-75
2021/11/06 00:43:39;;;;;;;93.05;49.25;;;;;;;9.68;100.00;100807.27;1824510;78;21788;-75
2021/11/06 00:46:45;;;;;;;78.42;39.18;;;;;;;9.71;100.00;100807.83;1826843;78;21240;-75
2021/11/06 00:49:50;;;;;;;99.25;50.70;;;;;;;9.74;100.00;100805.30;1827741;78;21538;-75
2021/11/06 00:52:58;;;;;;;88.87;47.35;;;;;;;9.75;100.00;100803.42;1825135;78;21334;-75
2021/11/06 00:56:04;;;;;;;87.17;49.93;;;;;;;9.76;100.00;100812.81;1828191;78;21347;-75
2021/11/06 00:59:10;;;;;;;85.32;43.55;;;;;;;9.79;100.00;100802.09;1826684;78;21853;-75
2021/11/06 01:02:15;;;;;;;94.32;48.02;;;;;;;9.80;100.00;100797.82;1825694;78;21321;-75
2021/11/06 01:05:22;;;;;;;98.62;49.40;;;;;;;9.81;100.00;100794.06;1828736;78;21698;-75
2021/11/06 01:08:27;;;;;;;102.53;49.93;;;;;;;9.82;100.00;100792.19;1826085;78;21276;-75
2021/11/06 01:11:35;;;;;;;103.10;50.43;;;;;;;9.84;100.00;100789.66;1824650;78;21212;-75
2021/11/06 01:14:40;;;;;;;108.35;52.15;;;;;;;9.85;100.00;100783.69;1827915;78;21288;-75
2021/11/06 01:17:45;;;;;;;84.25;45.12;;;;;;;9.87;100.00;100787.95;1826310;78;21224;-75
2021/11/06 01:20:51;;;;;;;100.82;50.95;;;;;;;9.87;100.00;100785.22;1826280;78;21837;-75
2021/11/06 01:23:56;;;;;;;94.92;47.65;;;;;;;9.88;100.00;100782.86;1826687;78;21145;-75
2021/11/06 01:27:02;;;;;;;99.40;51.13;;;;;;;9.89;100.00;100781.84;1826622;78;21675;-75
2021/11/06 01:30:09;;;;;;;114.20;56.55;;;;;;;9.91;100.00;100787.13;1827720;78;21312;-75
2021/11/06 01:33:15;;;;;;;113.72;55.75;;;;;;;9.91;100.00;100786.62;1828652;78;21176;-75
2021/11/06 01:36:20;;;;;;;110.57;53.13;;;;;;;9.94;100.00;100788.19;1828210;78;21272;-75
2021/11/06 01:39:27;;;;;;;107.75;55.67;;;;;;;9.96;100.00;100792.97;1826551;78;21308;-75
2021/11/06 01:42:32;;;;;;;102.85;52.45;;;;;;;9.97;100.00;100787.84;1826058;78;21200;-75
2021/11/06 01:45:39;;;;;;;112.90;55.10;;;;;;;9.98;100.00;100793.17;1825390;78;21859;-75
2021/11/06 01:48:45;;;;;;;103.67;53.60;;;;;;;10.02;100.00;100803.76;1825469;78;21185;-75
2021/11/06 01:51:52;;;;;;;116.37;56.73;;;;;;;10.03;100.00;100798.16;1828080;78;21318;-75
2021/11/06 01:54:58;;;;;;;117.53;55.20;;;;;;;10.04;100.00;100791.66;1831663;78;21316;-75
2021/11/06 01:58:03;;;;;;;108.12;56.18;;;;;;;10.05;100.00;100787.91;1827990;78;21303;-75
2021/11/06 02:01:09;;;;;;;91.10;48.10;;;;;;;10.06;100.00;100784.66;1827836;78;21193;-75
2021/11/06 02:04:14;;;;;;;105.90;55.00;;;;;;;10.06;100.00;100792.34;1826008;78;21846;-75
2021/11/06 02:07:20;;;;;;;86.63;44.45;;;;;;;10.05;100.00;100788.42;1827719;78;21307;-75
2021/11/06 02:10:26;;;;;;;99.90;50.08;;;;;;;10.03;100.00;100780.91;1825822;78;21365;-75
2021/11/06 02:13:32;;;;;;;91.60;47.53;;;;;;;10.01;100.00;100778.31;1827435;78;21871;-75
2021/11/06 02:16:38;;;;;;;110.78;53.95;;;;;;;10.00;100.00;100773.88;1826515;78;21346;-75
2021/11/06 02:19:43;;;;;;;105.92;52.65;;;;;;;9.99;100.00;100775.75;1826334;78;21307;-75
2021/11/06 02:22:49;;;;;;;105.50;54.23;;;;;;;9.98;100.00;100778.14;1826130;78;21173;-75
2021/11/06 02:25:55;;;;;;;110.15;55.10;;;;;;;9.97;100.00;100772.33;1826159;78;21216;-75
2021/11/06 02:29:04;;;;;;;91.02;46.15;;;;;;;9.97;100.00;100772.81;1823300;78;21875;-75
2021/11/06 02:32:11;;;;;;;105.25;53.33;;;;;;;9.95;100.00;100770.25;1826444;78;21299;-75
2021/11/06 02:35:17;;;;;;;88.20;49.93;;;;;;;9.91;100.00;100763.39;1824656;78;21873;-75
2021/11/06 02:38:24;;;;;;;98.52;55.25;;;;;;;9.88;100.00;100764.22;1827542;78;21331;-75
2021/11/06 02:41:30;;;;;;;91.25;48.30;;;;;;;9.83;100.00;100761.11;1824702;78;21658;-75
2021/11/06 02:44:36;;;;;;;104.45;53.80;;;;;;;9.81;100.00;100768.63;1824357;78;21343;-75
2021/11/06 02:47:42;;;;;;;88.25;47.58;;;;;;;9.78;100.00;100757.49;1826238;78;21995;-75
2021/11/06 02:50:48;;;;;;;102.78;52.73;;;;;;;9.80;100.00;100754.11;1826925;78;21303;-75
2021/11/06 02:53:54;;;;;;;115.52;51.28;;;;;;;9.80;100.00;100762.30;1828359;78;21288;-75
2021/11/06 02:57:00;;;;;;;89.90;45.30;;;;;;;9.81;100.00;100768.11;1827745;78;22635;-75
2021/11/06 03:00:07;;;;;;;89.37;44.67;;;;;;;9.82;100.00;100758.03;1827512;78;21327;-75
2021/11/06 03:03:13;;;;;;;113.32;44.08;;;;;;;9.83;100.00;100751.03;1825881;78;22647;-75
2021/11/06 03:06:18;;;;;;;114.25;40.03;;;;;;;9.82;100.00;100740.28;1824894;78;21335;-75
2021/11/06 03:09:25;;;;;;;121.10;42.08;;;;;;;9.81;100.00;100743.52;1825406;78;21263;-75
2021/11/06 03:12:31;;;;;;;156.97;45.10;;;;;;;9.80;100.00;100732.77;1826571;78;21308;-75
2021/11/06 03:15:37;;;;;;;102.20;39.80;;;;;;;9.80;100.00;100734.98;1826604;78;21330;-75
2021/11/06 03:18:42;;;;;;;133.82;43.85;;;;;;;9.81;100.00;100731.23;1828105;78;21213;-75
2021/11/06 03:21:48;;;;;;;144.87;44.95;;;;;;;9.82;100.00;100738.40;1829070;78;21177;-75
2021/11/06 03:24:53;;;;;;;108.52;40.70;;;;;;;9.83;100.00;100737.38;1826377;78;21300;-75
2021/11/06 03:28:00;;;;;;;108.57;40.58;;;;;;;9.83;100.00;100737.38;1826627;78;21244;-75
2021/11/06 03:31:06;;;;;;;106.20;38.05;;;;;;;9.85;100.00;100735.87;1826083;78;21792;-75
2021/11/06 03:34:12;;;;;;;154.23;46.35;;;;;;;9.84;100.00;100736.38;1827116;78;21319;-75
2021/11/06 03:37:17;;;;;;;188.80;45.85;;;;;;;9.84;100.00;100726.81;1827901;78;21350;-75
2021/11/06 03:40:22;;;;;;;148.97;44.35;;;;;;;9.84;100.00;100731.43;1826667;78;21280;-75
2021/11/06 03:43:28;;;;;;;139.68;44.20;;;;;;;9.83;100.00;100737.38;1825940;78;21299;-75
2021/11/06 03:46:33;;;;;;;102.30;38.60;;;;;;;9.84;100.00;100728.19;1825331;78;21296;-75
2021/11/06 03:49:40;;;;;;;106.87;41.60;;;;;;;9.86;100.00;100731.59;1826133;78;21295;-75
2021/11/06 03:52:46;;;;;;;109.75;44.23;;;;;;;9.86;100.00;100737.06;1827596;78;21150;-75
2021/11/06 03:55:52;;;;;;;134.55;43.73;;;;;;;9.86;100.00;100726.13;1827017;78;21311;-75
2021/11/06 03:58:58;;;;;;;174.97;46.18;;;;;;;9.87;100.00;100716.91;1827697;78;21209;-75
2021/11/06 04:02:05;;;;;;;112.37;40.63;;;;;;;9.87;100.00;100722.38;1826123;78;21346;-75
2021/11/06 04:05:11;;;;;;;114.65;41.42;;;;;;;9.89;100.00;100718.98;1826456;78;21294;-75
2021/11/06 04:08:16;;;;;;;153.15;48.78;;;;;;;9.90;100.00;100715.23;1827234;78;21308;-75
2021/11/06 04:11:22;;;;;;;126.35;41.40;;;;;;;9.91;100.00;100726.50;1827501;78;21201;-75
2021/11/06 04:14:28;;;;;;;138.32;45.98;;;;;;;9.94;100.00;100733.53;1826016;78;21298;-75
2021/11/06 04:17:34;;;;;;;136.68;45.25;;;;;;;9.98;100.00;100737.66;1828238;78;21808;-75
2021/11/06 04:20:39;;;;;;;138.50;46.08;;;;;;;9.99;100.00;100735.27;1828613;78;21197;-75
2021/11/06 04:23:47;;;;;;;126.33;44.38;;;;;;;9.99;100.00;100729.29;1824773;78;21178;-75
2021/11/06 04:26:52;;;;;;;116.75;42.85;;;;;;;10.01;100.00;100729.63;1825244;78;21304;-75
2021/11/06 04:29:58;;;;;;;83.50;36.45;;;;;;;10.04;100.00;100736.15;1827506;78;21350;-75
2021/11/06 04:33:04;;;;;;;110.83;39.55;;;;;;;10.02;100.00;100732.70;1825935;78;21311;-75
2021/11/06 04:36:11;;;;;;;82.08;41.85;;;;;;;9.98;100.00;100730.83;1827128;78;21712;-75
2021/11/06 04:39:16;;;;;;;96.95;39.42;;;;;;;9.97;100.00;100746.38;1824882;78;21576;-75
2021/11/06 04:42:24;;;;;;;130.37;40.80;;;;;;;10.01;100.00;100750.13;1825560;78;21364;-75
2021/11/06 04:45:30;;;;;;;122.42;38.83;;;;;;;9.99;100.00;100764.81;1824502;78;21193;-75
2021/11/06 04:48:36;;;;;;;89.15;39.48;;;;;;;10.01;100.00;100762.42;1826597;78;21291;-75
2021/11/06 04:51:42;;;;;;;81.30;35.33;;;;;;;9.98;100.00;100748.08;1826210;78;21307;-75
2021/11/06 04:54:47;;;;;;;123.13;37.75;;;;;;;9.94;100.00;100760.34;1826411;78;21235;-75
2021/11/06 04:57:54;;;;;;;108.17;34.20;;;;;;;9.92;100.00;100766.47;1829442;78;21335;-75
2021/11/06 05:01:00;;;;;;;87.37;37.38;;;;;;;9.93;100.00;100765.47;1826878;78;21311;-75
2021/11/06 05:04:06;;;;;;;63.45;29.27;;;;;;;9.92;100.00;100761.00;1825873;78;21308;-75
2021/11/06 05:07:13;;;;;;;57.17;34.43;;;;;;;9.91;100.00;100772.95;1827041;78;21315;-75
2021/11/06 05:10:19;;;;;;;87.25;35.25;;;;;;;9.91;100.00;100766.13;1825028;78;21184;-75
2021/11/06 05:13:25;;;;;;;59.88;31.27;;;;;;;9.91;100.00;100756.56;1826584;78;21304;-75
2021/11/06 05:16:33;;;;;;;71.50;30.12;;;;;;;9.87;100.00;100756.53;1825392;78;21193;-75
2021/11/06 05:19:38;;;;;;;64.72;32.03;;;;;;;9.87;100.00;100770.19;1823992;78;21296;-75
2021/11/06 05:22:43;;;;;;;69.05;32.08;;;;;;;9.89;100.00;100777.73;1828755;78;21287;-75
2021/11/06 05:25:50;;;;;;;90.42;33.08;;;;;;;9.93;100.00;100785.11;1825686;78;21847;-75
2021/11/06 05:28:56;;;;;;;88.15;33.15;;;;;;;9.97;100.00;100776.91;1823578;78;21203;-75
2021/11/06 05:32:01;;;;;;;62.75;29.40;;;;;;;10.02;100.00;100781.89;1829124;78;21536;-75
2021/11/06 05:35:07;;;;;;;67.08;29.63;;;;;;;10.01;100.00;100771.99;1828426;78;21749;-75
2021/11/06 05:38:13;;;;;;;37.30;23.87;;;;;;;10.00;100.00;100760.20;1835023;78;21300;-75
2021/11/06 05:41:18;;;;;;;51.40;28.80;;;;;;;9.99;100.00;100764.81;1827348;78;21342;-75
2021/11/06 05:44:25;;;;;;;55.92;29.70;;;;;;;9.98;100.00;100763.11;1823518;78;21307;-75
2021/11/06 05:47:30;;;;;;;79.25;30.05;;;;;;;9.95;100.00;100763.94;1825079;78;21877;-75
2021/11/06 05:50:36;;;;;;;72.40;29.27;;;;;;;9.93;100.00;100776.41;1827381;78;21342;-75
2021/11/06 05:53:42;;;;;;;72.58;29.77;;;;;;;9.97;100.00;100797.41;1825470;78;21300;-75
2021/11/06 05:56:47;;;;;;;61.23;31.17;;;;;;;10.04;100.00;100799.02;1827025;78;21895;-75
2021/11/06 05:59:55;;;;;;;83.05;30.80;;;;;;;10.09;100.00;100783.84;1827521;78;21209;-75
2021/11/06 06:03:01;;;;;;;73.02;27.77;;;;;;;10.10;100.00;100780.59;1831773;78;21217;-75
2021/11/06 06:06:09;;;;;;;64.05;31.15;;;;;;;10.12;100.00;100801.29;1825749;78;21851;-75
2021/11/06 06:09:14;;;;;;;61.33;32.65;;;;;;;10.15;100.00;100813.25;1827544;78;21166;-75
2021/11/06 06:12:22;;;;;;;60.28;28.70;;;;;;;10.20;100.00;100814.13;1824774;78;21316;-75
2021/11/06 06:15:28;;;;;;;55.30;27.55;;;;;;;10.27;100.00;100837.63;1825571;78;21174;-75
2021/11/06 06:18:33;;;;;;;57.08;30.30;;;;;;;10.29;100.00;100845.15;1830535;78;21863;-75
2021/11/06 06:21:38;;;;;;;45.67;25.02;;;;;;;10.29;100.00;100836.44;1827091;78;21311;-75
2021/11/06 06:24:45;;;;;;;47.60;27.35;;;;;;;10.30;100.00;100842.24;1826257;78;21303;-75
2021/11/06 06:27:50;;;;;;;53.58;24.87;;;;;;;10.31;100.00;100847.23;1826680;78;21212;-75
2021/11/06 06:30:55;;;;;;;55.95;29.60;;;;;;;10.32;100.00;100845.69;1826278;78;21302;-75
2021/11/06 06:34:01;;;;;;;58.35;31.02;;;;;;;10.34;100.00;100861.41;1825555;78;21351;-75
2021/11/06 06:37:06;;;;;;;58.15;31.90;;;;;;;10.35;100.00;100865.89;1823986;78;21324;-75
2021/11/06 06:40:13;;;;;;;64.80;32.48;;;;;;;10.36;100.00;100864.86;1827355;78;21693;-75
2021/11/06 06:43:18;;;;;;;82.12;32.03;;;;;;;10.39;100.00;100866.40;1828694;78;21272;-75
